createdAt,value
2019-03-31T00:00:12.144Z,10.77
2019-03-31T00:02:42.914Z,10.87
2019-03-31T00:05:13.459Z,11.93
2019-03-31T00:07:44.145Z,11.30
2019-03-31T00:10:14.926Z,10.97
2019-03-31T00:12:45.517Z,11.77
2019-03-31T00:15:16.215Z,11.43
2019-03-31T00:17:46.850Z,12.23
2019-03-31T00:20:17.465Z,11.67
2019-03-31T00:22:48.095Z,11.27
2019-03-31T00:25:18.663Z,11.90
2019-03-31T00:27:49.095Z,11.20
2019-03-31T00:30:19.731Z,11.30
2019-03-31T00:32:50.362Z,11.27
2019-03-31T00:35:20.823Z,11.50
2019-03-31T00:37:51.334Z,10.67
2019-03-31T00:40:21.990Z,10.87
2019-03-31T00:42:52.490Z,10.80
2019-03-31T00:45:23.024Z,10.67
2019-03-31T00:47:53.577Z,10.70
2019-03-31T00:50:24.034Z,10.87
2019-03-31T00:52:54.741Z,10.67
2019-03-31T00:55:25.435Z,10.70
2019-03-31T00:57:56.097Z,10.97
2019-03-31T01:00:44.937Z,10.60
2019-03-31T01:03:15.882Z,11.40
2019-03-31T01:05:46.634Z,11.87
2019-03-31T01:08:18.035Z,11.90
2019-03-31T01:10:48.679Z,12.23
2019-03-31T01:13:19.218Z,11.37
2019-03-31T01:15:49.955Z,13.13
2019-03-31T01:18:20.590Z,13.70
2019-03-31T01:20:51.160Z,13.77
2019-03-31T01:23:21.783Z,13.40
2019-03-31T01:25:52.453Z,15.00
2019-03-31T01:28:23.119Z,13.03
2019-03-31T01:30:53.757Z,14.77
2019-03-31T01:33:24.620Z,14.10
2019-03-31T01:35:55.120Z,14.10
2019-03-31T01:38:25.824Z,14.83
2019-03-31T01:40:56.866Z,15.40
2019-03-31T01:43:27.359Z,14.97
2019-03-31T01:45:58.246Z,15.03
2019-03-31T01:48:28.745Z,15.27
2019-03-31T01:50:59.455Z,14.77
2019-03-31T01:53:30.155Z,14.63
2019-03-31T01:56:00.736Z,15.37
2019-03-31T01:58:31.431Z,15.07
2019-03-31T02:01:03.815Z,14.73
2019-03-31T02:03:34.468Z,14.13
2019-03-31T02:06:05.212Z,14.43
2019-03-31T02:08:35.633Z,14.70
2019-03-31T02:11:06.444Z,15.27
2019-03-31T02:13:37.135Z,15.43
2019-03-31T02:16:07.742Z,14.50
2019-03-31T02:18:38.218Z,15.27
2019-03-31T02:21:08.910Z,13.77
2019-03-31T02:23:39.435Z,15.03
2019-03-31T02:26:09.982Z,14.73
2019-03-31T02:28:40.678Z,14.57
2019-03-31T02:31:11.232Z,14.67
2019-03-31T02:33:41.813Z,14.67
2019-03-31T02:36:12.471Z,14.17
2019-03-31T02:38:42.949Z,13.40
2019-03-31T02:41:13.371Z,13.20
2019-03-31T02:43:44.001Z,13.73
2019-03-31T02:46:14.766Z,13.07
2019-03-31T02:48:45.427Z,13.50
2019-03-31T02:51:16.127Z,13.43
2019-03-31T02:53:46.763Z,13.43
2019-03-31T02:56:18.630Z,13.00
2019-03-31T02:58:51.015Z,13.43
2019-03-31T03:01:22.957Z,14.00
2019-03-31T03:03:53.671Z,13.53
2019-03-31T03:06:26.844Z,12.90
2019-03-31T03:08:59.223Z,12.70
2019-03-31T03:11:31.819Z,12.23
2019-03-31T03:14:03.854Z,12.13
2019-03-31T03:16:34.574Z,12.30
2019-03-31T03:19:05.279Z,12.50
2019-03-31T03:21:35.778Z,12.40
2019-03-31T03:24:06.609Z,12.47
2019-03-31T03:26:37.204Z,11.97
2019-03-31T03:29:07.679Z,11.60
2019-03-31T03:31:38.331Z,11.93
2019-03-31T03:34:08.881Z,12.00
2019-03-31T03:36:42.950Z,12.30
2019-03-31T03:39:11.601Z,11.87
2019-03-31T03:41:42.238Z,12.43
2019-03-31T03:44:12.908Z,11.23
2019-03-31T03:46:43.470Z,11.13
2019-03-31T03:49:14.297Z,11.73
2019-03-31T03:51:44.975Z,11.97
2019-03-31T03:54:15.568Z,11.17
2019-03-31T03:56:46.198Z,10.60
2019-03-31T03:59:16.671Z,11.60
2019-03-31T04:01:47.330Z,11.37
2019-03-31T04:04:17.861Z,11.97
2019-03-31T04:06:48.509Z,11.70
2019-03-31T04:09:19.003Z,11.30
2019-03-31T04:11:49.576Z,11.60
2019-03-31T04:14:20.013Z,10.70
2019-03-31T04:16:50.513Z,10.67
2019-03-31T04:19:21.206Z,10.47
2019-03-31T04:21:51.675Z,11.80
2019-03-31T04:24:22.115Z,11.27
2019-03-31T04:26:52.634Z,10.30
2019-03-31T04:29:23.109Z,10.97
2019-03-31T04:31:53.638Z,10.57
2019-03-31T04:34:24.096Z,9.67
2019-03-31T04:36:54.663Z,10.93
2019-03-31T04:39:25.236Z,10.20
2019-03-31T04:41:55.729Z,10.53
2019-03-31T04:44:26.346Z,11.07
2019-03-31T04:46:56.874Z,10.53
2019-03-31T04:49:27.486Z,10.67
2019-03-31T04:51:58.191Z,10.80
2019-03-31T04:54:28.842Z,10.87
2019-03-31T04:56:59.266Z,11.63
2019-03-31T04:59:29.713Z,10.80
2019-03-31T05:02:00.353Z,12.23
2019-03-31T05:04:30.934Z,12.20
2019-03-31T05:07:01.621Z,12.27
2019-03-31T05:09:32.271Z,11.13
2019-03-31T05:12:02.842Z,12.23
2019-03-31T05:14:33.390Z,11.03
2019-03-31T05:17:03.878Z,11.13
2019-03-31T05:19:34.453Z,11.20
2019-03-31T05:22:05.210Z,11.60
2019-03-31T05:24:35.822Z,11.90
2019-03-31T05:27:06.481Z,10.47
2019-03-31T05:29:37.207Z,10.57
2019-03-31T05:32:07.641Z,11.57
2019-03-31T05:34:38.269Z,11.77
2019-03-31T05:37:08.713Z,10.63
2019-03-31T05:39:39.278Z,10.77
2019-03-31T05:42:09.935Z,11.60
2019-03-31T05:44:40.534Z,11.20
2019-03-31T05:47:11.042Z,11.93
2019-03-31T05:49:41.600Z,11.97
2019-03-31T05:52:12.272Z,10.97
2019-03-31T05:54:43.003Z,11.63
2019-03-31T05:57:13.448Z,11.97
2019-03-31T05:59:44.015Z,11.67
2019-03-31T06:02:14.550Z,12.83
2019-03-31T06:04:45.223Z,12.93
2019-03-31T06:07:15.748Z,13.07
2019-03-31T06:09:46.365Z,12.50
2019-03-31T06:12:16.855Z,12.63
2019-03-31T06:14:47.570Z,13.00
2019-03-31T06:17:18.065Z,12.30
2019-03-31T06:19:48.564Z,13.07
2019-03-31T06:22:19.103Z,11.80
2019-03-31T06:24:49.613Z,12.47
2019-03-31T06:27:20.084Z,12.43
2019-03-31T06:29:50.497Z,13.20
2019-03-31T06:32:21.275Z,12.37
2019-03-31T06:34:51.750Z,12.47
2019-03-31T06:37:22.287Z,12.50
2019-03-31T06:39:52.959Z,13.40
2019-03-31T06:42:23.414Z,12.37
2019-03-31T06:44:53.883Z,13.10
2019-03-31T06:47:24.510Z,12.93
2019-03-31T06:49:54.987Z,13.50
2019-03-31T06:52:25.616Z,11.93
2019-03-31T06:54:56.274Z,12.07
2019-03-31T06:57:26.917Z,13.40
2019-03-31T06:59:57.360Z,12.70
2019-03-31T07:02:27.908Z,11.93
2019-03-31T07:05:01.163Z,13.70
2019-03-31T07:07:30.566Z,12.43
2019-03-31T07:10:01.151Z,12.40
2019-03-31T07:12:31.640Z,12.43
2019-03-31T07:15:02.216Z,12.37
2019-03-31T07:17:32.806Z,12.97
2019-03-31T07:20:03.340Z,13.80
2019-03-31T07:22:33.913Z,12.37
2019-03-31T07:25:04.530Z,12.17
2019-03-31T07:27:35.085Z,12.67
2019-03-31T07:30:07.249Z,13.53
2019-03-31T07:32:37.933Z,12.63
2019-03-31T07:35:18.273Z,13.13
2019-03-31T07:37:47.623Z,13.13
2019-03-31T07:40:16.289Z,13.17
2019-03-31T07:42:47.060Z,12.77
2019-03-31T07:45:18.157Z,13.27
2019-03-31T07:47:48.914Z,12.53
2019-03-31T07:50:20.250Z,12.87
2019-03-31T07:52:50.967Z,13.43
2019-03-31T07:55:22.570Z,12.30
2019-03-31T07:57:54.683Z,12.43
2019-03-31T08:00:25.673Z,12.73
2019-03-31T08:02:56.254Z,12.13
2019-03-31T08:05:32.834Z,11.63
2019-03-31T08:07:58.914Z,11.50
2019-03-31T08:10:29.626Z,12.87
2019-03-31T08:13:00.277Z,10.97
2019-03-31T08:15:30.814Z,10.97
2019-03-31T08:18:01.266Z,10.40
2019-03-31T08:20:31.862Z,11.27
2019-03-31T08:23:02.433Z,11.27
2019-03-31T08:25:32.971Z,11.83
2019-03-31T08:28:03.502Z,11.10
2019-03-31T08:30:34.270Z,11.43
2019-03-31T08:33:04.846Z,11.17
2019-03-31T08:35:46.773Z,10.90
2019-03-31T08:38:07.762Z,11.30
2019-03-31T08:40:38.393Z,10.63
2019-03-31T08:43:09.006Z,10.80
2019-03-31T08:45:39.686Z,10.60
2019-03-31T08:48:10.152Z,10.63
2019-03-31T08:50:40.645Z,11.23
2019-03-31T08:53:11.151Z,11.60
2019-03-31T08:55:41.616Z,11.70
2019-03-31T08:58:12.074Z,11.93
2019-03-31T09:00:55.455Z,11.43
2019-03-31T09:03:25.949Z,10.50
2019-03-31T09:06:02.214Z,10.00
2019-03-31T09:08:28.916Z,10.40
2019-03-31T09:10:59.499Z,10.60
2019-03-31T09:13:30.110Z,10.53
2019-03-31T09:16:00.653Z,11.30
2019-03-31T09:18:31.078Z,10.80
2019-03-31T09:21:01.665Z,11.70
2019-03-31T09:23:32.216Z,11.53
2019-03-31T09:26:02.797Z,11.33
2019-03-31T09:28:33.289Z,12.20
2019-03-31T09:31:03.978Z,11.67
2019-03-31T09:33:34.624Z,11.37
2019-03-31T09:36:15.978Z,11.57
2019-03-31T09:38:37.380Z,11.40
2019-03-31T09:41:08.204Z,12.10
2019-03-31T09:43:38.770Z,11.93
2019-03-31T09:46:09.379Z,11.63
2019-03-31T09:48:39.938Z,11.37
2019-03-31T09:51:10.393Z,11.30
2019-03-31T09:53:40.910Z,11.00
2019-03-31T09:56:13.704Z,10.30
2019-03-31T09:58:43.913Z,11.23
2019-03-31T10:01:14.527Z,10.93
2019-03-31T10:03:45.077Z,10.57
2019-03-31T10:06:29.326Z,10.03
2019-03-31T10:08:48.056Z,11.07
2019-03-31T10:11:18.731Z,10.33
2019-03-31T10:13:49.276Z,11.33
2019-03-31T10:16:19.790Z,10.83
2019-03-31T10:18:50.367Z,12.03
2019-03-31T10:21:20.935Z,12.40
2019-03-31T10:23:51.641Z,12.43
2019-03-31T10:26:31.879Z,12.40
2019-03-31T10:28:54.301Z,11.70
2019-03-31T10:31:24.893Z,12.27
2019-03-31T10:33:55.415Z,11.73
2019-03-31T10:36:25.909Z,12.13
2019-03-31T10:38:56.726Z,12.80
2019-03-31T10:41:30.697Z,11.10
2019-03-31T10:43:59.419Z,11.77
2019-03-31T10:46:29.911Z,12.40
2019-03-31T10:49:00.367Z,11.93
2019-03-31T10:51:31.060Z,11.53
2019-03-31T10:54:04.415Z,10.93
2019-03-31T10:56:33.813Z,11.87
2019-03-31T10:59:04.422Z,10.63
2019-03-31T11:01:34.995Z,13.07
2019-03-31T11:04:05.621Z,12.00
2019-03-31T11:06:36.174Z,12.77
2019-03-31T11:09:08.591Z,11.30
2019-03-31T11:11:39.097Z,10.83
2019-03-31T11:14:09.734Z,11.83
2019-03-31T11:16:40.385Z,12.83
2019-03-31T11:19:10.950Z,13.37
2019-03-31T11:21:51.827Z,12.40
2019-03-31T11:24:22.350Z,12.90
2019-03-31T11:26:53.142Z,13.07
2019-03-31T11:29:23.752Z,13.67
2019-03-31T11:31:54.322Z,13.47
2019-03-31T11:34:24.835Z,13.40
2019-03-31T11:36:55.427Z,12.70
2019-03-31T11:39:25.871Z,12.37
2019-03-31T11:41:56.446Z,11.87
2019-03-31T11:44:27.793Z,12.87
2019-03-31T11:47:00.673Z,12.53
2019-03-31T11:49:31.193Z,13.03
2019-03-31T11:52:01.646Z,12.23
2019-03-31T11:54:32.197Z,12.27
2019-03-31T11:57:02.648Z,12.10
2019-03-31T11:59:33.282Z,14.10
2019-03-31T12:02:03.865Z,12.47
2019-03-31T12:04:34.406Z,14.27
2019-03-31T12:07:04.966Z,14.17
2019-03-31T12:09:35.443Z,15.37
2019-03-31T12:12:06.062Z,15.07
2019-03-31T12:14:36.530Z,15.57
2019-03-31T12:17:06.962Z,14.57
2019-03-31T12:19:38.737Z,14.13
2019-03-31T12:22:09.484Z,13.67
2019-03-31T12:24:40.101Z,14.97
2019-03-31T12:27:10.746Z,15.97
2019-03-31T12:29:41.378Z,14.87
2019-03-31T12:32:11.842Z,15.67
2019-03-31T12:34:42.486Z,15.10
2019-03-31T12:37:13.047Z,13.40
2019-03-31T12:39:43.602Z,15.30
2019-03-31T12:42:15.226Z,15.07
2019-03-31T12:44:45.726Z,13.27
2019-03-31T12:47:16.304Z,13.97
2019-03-31T12:49:46.856Z,12.80
2019-03-31T12:52:17.354Z,11.90
2019-03-31T12:54:47.889Z,11.60
2019-03-31T12:57:18.434Z,10.77
2019-03-31T12:59:49.006Z,11.87
2019-03-31T13:02:19.789Z,11.13
2019-03-31T13:04:50.246Z,11.10
2019-03-31T13:07:20.696Z,12.17
2019-03-31T13:09:51.167Z,11.23
2019-03-31T13:12:21.822Z,11.77
2019-03-31T13:14:52.409Z,11.43
2019-03-31T13:17:23.015Z,12.13
2019-03-31T13:19:53.701Z,10.50
2019-03-31T13:22:24.294Z,10.07
2019-03-31T13:24:54.819Z,10.33
2019-03-31T13:27:25.481Z,10.53
2019-03-31T13:29:56.049Z,10.37
2019-03-31T13:32:26.671Z,9.83
2019-03-31T13:34:57.278Z,10.37
2019-03-31T13:37:27.742Z,11.77
2019-03-31T13:39:58.295Z,10.50
2019-03-31T13:42:28.955Z,9.90
2019-03-31T13:44:59.517Z,10.90
2019-03-31T13:47:30.154Z,11.27
2019-03-31T13:50:00.619Z,10.73
2019-03-31T13:52:31.053Z,12.27
2019-03-31T13:55:01.716Z,11.30
2019-03-31T13:57:32.987Z,10.97
2019-03-31T14:00:04.329Z,10.50
2019-03-31T14:02:35.029Z,11.17
2019-03-31T14:05:06.014Z,11.00
2019-03-31T14:07:36.489Z,10.87
2019-03-31T14:10:07.519Z,11.60
2019-03-31T14:12:38.695Z,11.17
2019-03-31T14:15:18.993Z,11.00
2019-03-31T14:17:41.981Z,12.50
2019-03-31T14:20:12.637Z,11.30
2019-03-31T14:22:43.116Z,10.97
2019-03-31T14:25:14.353Z,10.40
2019-03-31T14:27:44.911Z,11.50
2019-03-31T14:30:15.637Z,11.47
2019-03-31T14:32:46.116Z,12.20
2019-03-31T14:35:16.603Z,11.13
2019-03-31T14:37:47.282Z,10.87
2019-03-31T14:40:17.850Z,10.47
2019-03-31T14:42:48.466Z,9.43
2019-03-31T14:45:32.293Z,9.60
2019-03-31T14:48:03.312Z,9.87
2019-03-31T14:50:35.632Z,9.23
2019-03-31T14:53:06.965Z,8.47
2019-03-31T14:55:37.673Z,9.30
2019-03-31T14:58:08.672Z,9.17
2019-03-31T15:00:39.469Z,8.27
2019-03-31T15:03:10.033Z,7.80
2019-03-31T15:05:40.561Z,8.90
2019-03-31T15:08:10.998Z,8.10
2019-03-31T15:10:41.476Z,8.23
2019-03-31T15:13:12.236Z,7.53
2019-03-31T15:15:42.831Z,7.57
2019-03-31T15:18:13.390Z,7.17
2019-03-31T15:20:43.885Z,7.53
2019-03-31T15:23:14.379Z,7.03
2019-03-31T15:25:44.843Z,8.53
2019-03-31T15:28:15.476Z,7.20
2019-03-31T15:30:46.029Z,8.23
2019-03-31T15:33:16.493Z,6.67
2019-03-31T15:35:47.086Z,6.63
2019-03-31T15:38:17.569Z,7.20
2019-03-31T15:40:48.628Z,7.27
2019-03-31T15:43:19.308Z,6.83
2019-03-31T15:45:49.840Z,7.30
2019-03-31T15:48:20.394Z,7.23
2019-03-31T15:50:50.922Z,7.07
2019-03-31T15:53:21.467Z,6.53
2019-03-31T15:55:51.932Z,6.43
2019-03-31T15:58:22.523Z,5.90
2019-03-31T16:00:52.979Z,5.93
2019-03-31T16:03:23.462Z,7.77
2019-03-31T16:05:54.144Z,7.70
2019-03-31T16:08:24.075Z,7.07
2019-03-31T16:10:54.120Z,6.70
2019-03-31T16:13:24.180Z,6.77
2019-03-31T16:15:54.146Z,6.53
2019-03-31T16:18:24.195Z,7.33
2019-03-31T16:20:54.172Z,7.03
2019-03-31T16:23:24.435Z,6.37
2019-03-31T16:25:57.255Z,6.83
2019-03-31T16:28:27.277Z,6.00
2019-03-31T16:30:57.182Z,5.90
2019-03-31T16:33:27.230Z,6.80
2019-03-31T16:35:57.189Z,6.27
2019-03-31T16:38:28.218Z,7.03
2019-03-31T16:40:58.113Z,6.23
2019-03-31T16:43:28.209Z,5.93
2019-03-31T16:45:58.265Z,6.33
2019-03-31T16:48:28.284Z,6.87
2019-03-31T16:50:58.365Z,6.30
2019-03-31T16:53:28.402Z,6.60
2019-03-31T16:55:58.555Z,5.80
2019-03-31T16:58:28.487Z,7.37
2019-03-31T17:00:58.560Z,8.13
2019-03-31T17:03:28.474Z,8.00
2019-03-31T17:05:58.814Z,7.97
2019-03-31T17:08:29.455Z,9.27
2019-03-31T17:10:59.352Z,18.47
2019-03-31T17:13:29.443Z,22.87
2019-03-31T17:15:59.455Z,38.83
2019-03-31T17:18:29.767Z,38.10
2019-03-31T17:20:59.956Z,44.83
2019-03-31T17:23:29.893Z,45.40
2019-03-31T17:25:59.992Z,52.70
2019-03-31T17:28:30.251Z,56.90
2019-03-31T17:31:00.564Z,61.43
2019-03-31T17:33:30.638Z,64.63
2019-03-31T17:36:00.852Z,70.40
2019-03-31T17:38:30.951Z,75.83
2019-03-31T17:41:01.112Z,84.37
2019-03-31T17:43:31.148Z,83.57
2019-03-31T17:46:01.026Z,80.50
2019-03-31T17:48:30.963Z,83.77
2019-03-31T17:51:00.918Z,82.77
2019-03-31T17:53:30.916Z,83.47
2019-03-31T17:56:01.080Z,81.27
2019-03-31T17:58:31.188Z,79.50
2019-03-31T18:01:01.265Z,80.13
2019-03-31T18:03:31.211Z,76.30
2019-03-31T18:06:01.250Z,76.20
2019-03-31T18:08:31.248Z,75.43
2019-03-31T18:11:01.222Z,76.30
2019-03-31T18:13:31.274Z,70.97
2019-03-31T18:16:01.335Z,68.13
2019-03-31T18:18:31.326Z,64.07
2019-03-31T18:21:01.250Z,61.47
2019-03-31T18:23:31.377Z,60.33
2019-03-31T18:26:01.425Z,57.73
2019-03-31T18:28:31.432Z,56.63
2019-03-31T18:31:01.516Z,50.00
2019-03-31T18:33:31.464Z,48.53
2019-03-31T18:36:01.403Z,47.47
2019-03-31T18:38:31.348Z,46.07
2019-03-31T18:41:03.737Z,42.20
2019-03-31T18:43:33.075Z,41.53
2019-03-31T18:46:03.166Z,40.47
2019-03-31T18:48:33.222Z,39.97
2019-03-31T18:51:03.238Z,35.93
2019-03-31T18:53:55.007Z,36.13
2019-03-31T18:56:46.696Z,35.83
2019-03-31T18:59:33.190Z,34.73
2019-03-31T19:02:25.352Z,33.20
2019-03-31T19:05:14.997Z,31.73
2019-03-31T19:08:02.778Z,31.33
2019-03-31T19:10:57.871Z,30.73
2019-03-31T19:13:55.339Z,30.00
2019-03-31T19:16:36.610Z,28.00
2019-03-31T19:19:28.583Z,28.20
2019-03-31T19:22:17.556Z,27.43
2019-03-31T19:25:01.998Z,26.83
2019-03-31T19:28:03.165Z,26.90
2019-03-31T19:30:50.978Z,25.47
2019-03-31T19:33:39.110Z,24.90
2019-03-31T19:36:27.074Z,23.53
2019-03-31T19:39:16.110Z,26.20
2019-03-31T19:42:10.321Z,24.90
2019-03-31T19:45:03.297Z,23.03
2019-03-31T19:47:56.126Z,22.57
2019-03-31T19:50:55.601Z,23.70
2019-03-31T19:53:57.925Z,22.13
2019-03-31T19:56:57.489Z,22.90
2019-03-31T19:59:56.405Z,21.43
2019-03-31T20:02:52.034Z,19.83
2019-03-31T20:05:53.935Z,20.87
2019-03-31T20:08:40.420Z,21.07
2019-03-31T20:11:15.718Z,20.93
2019-03-31T20:14:23.928Z,20.07
2019-03-31T20:17:16.490Z,19.43
2019-03-31T20:20:04.101Z,18.80
2019-03-31T20:23:08.268Z,20.27
2019-03-31T20:25:56.032Z,19.97
2019-03-31T20:28:43.597Z,19.07
2019-03-31T20:31:44.509Z,19.07
2019-03-31T20:34:33.068Z,18.87
2019-03-31T20:37:21.239Z,18.30
2019-03-31T20:40:23.234Z,19.20
2019-03-31T20:43:21.148Z,18.63
2019-03-31T20:45:51.190Z,17.77
2019-03-31T20:48:21.121Z,18.57
2019-03-31T20:50:51.241Z,17.90
2019-03-31T20:53:21.645Z,18.43
2019-03-31T20:55:51.773Z,17.80
2019-03-31T20:58:21.740Z,18.37
2019-03-31T21:00:51.831Z,16.53
2019-03-31T21:03:21.824Z,17.93
2019-03-31T21:05:51.816Z,17.60
2019-03-31T21:08:21.954Z,17.00
2019-03-31T21:10:51.958Z,15.83
2019-03-31T21:13:21.985Z,16.37
2019-03-31T21:15:52.057Z,16.30
2019-03-31T21:18:21.962Z,16.27
2019-03-31T21:20:52.030Z,16.50
2019-03-31T21:23:22.060Z,16.83
2019-03-31T21:25:52.162Z,16.33
2019-03-31T21:28:22.153Z,15.87
2019-03-31T21:30:52.169Z,16.77
2019-03-31T21:33:22.125Z,15.53
2019-03-31T21:35:52.044Z,15.30
2019-03-31T21:38:22.136Z,15.23
2019-03-31T21:40:52.165Z,15.30
2019-03-31T21:43:22.086Z,15.87
2019-03-31T21:45:52.180Z,15.33
2019-03-31T21:48:22.047Z,16.10
2019-03-31T21:50:52.122Z,14.80
2019-03-31T21:53:22.169Z,14.40
2019-03-31T21:55:52.234Z,15.43
2019-03-31T21:58:22.148Z,14.53
2019-03-31T22:00:54.183Z,14.27
2019-03-31T22:03:24.301Z,15.00
2019-03-31T22:05:54.290Z,15.10
2019-03-31T22:08:24.381Z,14.70
2019-03-31T22:10:54.341Z,14.13
2019-03-31T22:13:24.262Z,15.00
2019-03-31T22:15:54.328Z,13.97
2019-03-31T22:18:24.737Z,14.43
2019-03-31T22:20:54.774Z,14.00
2019-03-31T22:23:24.749Z,14.87
2019-03-31T22:25:55.009Z,15.30
2019-03-31T22:28:25.063Z,14.43
2019-03-31T22:30:55.021Z,14.47
2019-03-31T22:33:25.086Z,13.97
2019-03-31T22:36:12.726Z,14.17
2019-03-31T22:38:42.858Z,14.60
2019-03-31T22:41:12.974Z,13.63
2019-03-31T22:43:42.961Z,13.57
2019-03-31T22:46:13.200Z,13.37
2019-03-31T22:48:43.089Z,13.43
2019-03-31T22:51:13.230Z,14.07
2019-03-31T22:53:43.409Z,14.17
2019-03-31T22:56:13.427Z,14.27
2019-03-31T22:58:43.478Z,13.20
2019-03-31T23:01:13.708Z,13.07
2019-03-31T23:03:43.610Z,13.07
2019-03-31T23:06:13.694Z,13.33
2019-03-31T23:08:43.623Z,14.03
2019-03-31T23:11:13.625Z,13.83
2019-03-31T23:13:43.679Z,13.30
2019-03-31T23:16:13.707Z,13.63
2019-03-31T23:18:43.867Z,13.27
2019-03-31T23:21:13.946Z,12.13
2019-03-31T23:23:43.845Z,12.10
2019-03-31T23:26:14.095Z,12.93
2019-03-31T23:28:47.379Z,11.87
2019-03-31T23:31:17.878Z,12.30
2019-03-31T23:33:47.944Z,11.67
2019-03-31T23:36:18.075Z,12.40
2019-03-31T23:38:48.264Z,11.80
2019-03-31T23:41:18.289Z,11.70
2019-03-31T23:43:48.231Z,12.63
2019-03-31T23:46:18.274Z,12.40
2019-03-31T23:48:48.292Z,12.07
2019-03-31T23:51:18.218Z,12.23
2019-03-31T23:53:48.379Z,11.67
2019-03-31T23:56:18.306Z,11.70
2019-03-31T23:58:48.205Z,12.33
